createdAt,value
2019-03-25T00:00:10.695Z,865.60
2019-03-25T00:01:10.694Z,865.63
2019-03-25T00:02:10.481Z,865.59
2019-03-25T00:03:10.479Z,865.60
2019-03-25T00:04:10.729Z,865.60
2019-03-25T00:05:10.417Z,865.57
2019-03-25T00:06:10.669Z,865.66
2019-03-25T00:07:10.634Z,865.65
2019-03-25T00:08:10.642Z,865.72
2019-03-25T00:09:10.407Z,865.68
2019-03-25T00:10:10.367Z,865.71
2019-03-25T00:11:10.627Z,865.70
2019-03-25T00:12:10.603Z,865.75
2019-03-25T00:13:10.569Z,865.73
2019-03-25T00:14:10.358Z,865.75
2019-03-25T00:15:10.317Z,865.80
2019-03-25T00:16:10.541Z,865.80
2019-03-25T00:17:10.331Z,865.81
2019-03-25T00:18:10.277Z,865.83
2019-03-25T00:19:10.515Z,865.86
2019-03-25T00:20:10.308Z,865.79
2019-03-25T00:21:10.550Z,865.84
2019-03-25T00:22:10.500Z,865.82
2019-03-25T00:23:10.229Z,865.84
2019-03-25T00:24:10.260Z,865.85
2019-03-25T00:25:10.475Z,865.88
2019-03-25T00:26:10.200Z,865.90
2019-03-25T00:27:10.484Z,865.89
2019-03-25T00:28:10.440Z,865.91
2019-03-25T00:29:10.437Z,865.93
2019-03-25T00:30:10.169Z,865.90
2019-03-25T00:31:10.195Z,865.94
2019-03-25T00:32:10.180Z,865.92
2019-03-25T00:33:10.433Z,865.93
2019-03-25T00:34:10.379Z,865.94
2019-03-25T00:35:10.111Z,865.90
2019-03-25T00:36:10.104Z,865.96
2019-03-25T00:37:10.400Z,865.99
2019-03-25T00:38:10.349Z,865.98
2019-03-25T00:39:10.343Z,865.93
2019-03-25T00:40:10.099Z,866.00
2019-03-25T00:41:10.062Z,865.95
2019-03-25T00:42:10.035Z,865.99
2019-03-25T00:43:10.308Z,866.01
2019-03-25T00:44:10.045Z,866.03
2019-03-25T00:45:10.269Z,865.97
2019-03-25T00:46:10.263Z,865.95
2019-03-25T00:47:10.276Z,865.97
2019-03-25T00:48:09.987Z,865.98
2019-03-25T00:49:09.981Z,865.95
2019-03-25T00:50:10.185Z,865.97
2019-03-25T00:51:09.988Z,865.99
2019-03-25T00:52:10.229Z,865.96
2019-03-25T00:53:10.192Z,865.95
2019-03-25T00:54:10.148Z,865.98
2019-03-25T00:55:09.952Z,865.95
2019-03-25T00:56:10.173Z,865.95
2019-03-25T00:57:09.894Z,865.94
2019-03-25T00:58:10.138Z,865.94
2019-03-25T01:00:42.533Z,865.93
2019-03-25T01:01:42.145Z,865.90
2019-03-25T01:03:35.276Z,865.91
2019-03-25T01:04:35.293Z,865.91
2019-03-25T01:06:29.247Z,865.93
2019-03-25T01:07:28.628Z,865.95
2019-03-25T01:09:22.598Z,865.94
2019-03-25T01:10:22.169Z,865.96
2019-03-25T01:12:15.739Z,865.96
2019-03-25T01:13:15.542Z,865.94
2019-03-25T01:15:08.942Z,865.95
2019-03-25T01:16:08.920Z,865.97
2019-03-25T01:18:02.303Z,865.98
2019-03-25T01:19:01.993Z,865.98
2019-03-25T01:20:55.356Z,865.95
2019-03-25T01:21:55.616Z,865.98
2019-03-25T01:23:48.965Z,865.97
2019-03-25T01:24:48.693Z,865.95
2019-03-25T01:26:42.637Z,865.99
2019-03-25T01:27:42.291Z,866.01
2019-03-25T01:29:35.932Z,865.99
2019-03-25T01:30:35.668Z,865.99
2019-03-25T01:32:30.078Z,865.96
2019-03-25T01:33:29.341Z,866.00
2019-03-25T01:35:22.906Z,866.00
2019-03-25T01:36:22.484Z,865.97
2019-03-25T01:38:16.032Z,865.95
2019-03-25T01:39:16.067Z,865.95
2019-03-25T01:41:09.336Z,865.99
2019-03-25T01:42:11.284Z,865.96
2019-03-25T01:44:02.830Z,865.91
2019-03-25T01:45:02.483Z,865.92
2019-03-25T01:46:56.299Z,865.90
2019-03-25T01:47:56.040Z,865.90
2019-03-25T01:49:49.385Z,865.92
2019-03-25T01:50:49.165Z,865.88
2019-03-25T01:52:42.685Z,865.90
2019-03-25T01:53:42.459Z,865.92
2019-03-25T01:55:35.911Z,865.93
2019-03-25T01:56:35.837Z,865.91
2019-03-25T01:58:29.330Z,865.90
2019-03-25T01:59:29.200Z,865.89
2019-03-25T02:01:23.162Z,865.87
2019-03-25T02:02:22.927Z,865.85
2019-03-25T02:04:16.447Z,865.84
2019-03-25T02:05:15.821Z,865.83
2019-03-25T02:07:09.445Z,865.85
2019-03-25T02:08:09.434Z,865.84
2019-03-25T02:09:09.526Z,865.82
2019-03-25T02:10:09.523Z,865.81
2019-03-25T02:11:11.754Z,865.84
2019-03-25T02:12:09.342Z,865.83
2019-03-25T02:13:09.358Z,865.83
2019-03-25T02:14:09.366Z,865.83
2019-03-25T02:15:09.324Z,865.78
2019-03-25T02:16:09.334Z,865.82
2019-03-25T02:17:09.092Z,865.82
2019-03-25T02:18:09.096Z,865.84
2019-03-25T02:19:09.049Z,865.77
2019-03-25T02:20:09.261Z,865.81
2019-03-25T02:21:09.029Z,865.72
2019-03-25T02:22:09.003Z,865.79
2019-03-25T02:23:09.311Z,865.81
2019-03-25T02:24:09.033Z,865.76
2019-03-25T02:25:09.245Z,865.80
2019-03-25T02:26:09.269Z,865.78
2019-03-25T02:27:09.012Z,865.80
2019-03-25T02:28:08.959Z,865.77
2019-03-25T02:29:08.993Z,865.75
2019-03-25T02:30:09.194Z,865.79
2019-03-25T02:31:08.958Z,865.79
2019-03-25T02:32:09.180Z,865.79
2019-03-25T02:33:09.145Z,865.79
2019-03-25T02:34:09.197Z,865.81
2019-03-25T02:35:09.147Z,865.79
2019-03-25T02:36:09.133Z,865.80
2019-03-25T02:37:09.134Z,865.79
2019-03-25T02:38:08.890Z,865.84
2019-03-25T02:39:08.889Z,865.82
2019-03-25T02:40:08.837Z,865.86
2019-03-25T02:41:09.087Z,865.85
2019-03-25T02:42:09.122Z,865.76
2019-03-25T02:43:09.085Z,865.77
2019-03-25T02:44:08.809Z,865.71
2019-03-25T02:45:09.071Z,865.76
2019-03-25T02:46:09.034Z,865.78
2019-03-25T02:47:08.817Z,865.76
2019-03-25T02:48:08.761Z,865.76
2019-03-25T02:49:09.010Z,865.76
2019-03-25T02:50:08.793Z,865.80
2019-03-25T02:51:08.737Z,865.71
2019-03-25T02:52:09.019Z,865.71
2019-03-25T02:53:08.747Z,865.71
2019-03-25T02:54:08.739Z,865.71
2019-03-25T02:55:08.728Z,865.73
2019-03-25T02:56:09.296Z,865.70
2019-03-25T02:57:08.921Z,865.69
2019-03-25T02:58:08.704Z,865.69
2019-03-25T02:59:08.944Z,865.66
2019-03-25T03:00:08.651Z,865.66
2019-03-25T03:01:08.891Z,865.68
2019-03-25T03:02:08.872Z,865.68
2019-03-25T03:03:08.566Z,865.64
2019-03-25T03:04:08.619Z,865.60
2019-03-25T03:05:08.885Z,865.64
2019-03-25T03:06:08.812Z,865.62
2019-03-25T03:07:08.613Z,865.61
2019-03-25T03:08:08.838Z,865.61
2019-03-25T03:09:08.626Z,865.61
2019-03-25T03:10:08.590Z,865.59
2019-03-25T03:11:08.865Z,865.57
2019-03-25T03:12:08.540Z,865.57
2019-03-25T03:13:08.521Z,865.54
2019-03-25T03:14:08.544Z,865.57
2019-03-25T03:15:08.741Z,865.54
2019-03-25T03:16:08.747Z,865.60
2019-03-25T03:17:08.773Z,865.56
2019-03-25T03:18:08.695Z,865.57
2019-03-25T03:19:08.734Z,865.55
2019-03-25T03:20:08.737Z,865.52
2019-03-25T03:21:08.663Z,865.54
2019-03-25T03:22:08.456Z,865.54
2019-03-25T03:23:08.664Z,865.51
2019-03-25T03:24:08.447Z,865.51
2019-03-25T03:25:08.674Z,865.51
2019-03-25T03:26:08.634Z,865.53
2019-03-25T03:27:08.636Z,865.53
2019-03-25T03:28:08.411Z,865.51
2019-03-25T03:29:08.395Z,865.49
2019-03-25T03:30:08.604Z,865.50
2019-03-25T03:31:08.562Z,865.51
2019-03-25T03:32:08.364Z,865.47
2019-03-25T03:33:08.564Z,865.48
2019-03-25T03:34:08.529Z,865.48
2019-03-25T03:35:08.529Z,865.49
2019-03-25T03:36:08.290Z,865.50
2019-03-25T03:37:08.273Z,865.46
2019-03-25T03:38:08.570Z,865.47
2019-03-25T03:39:08.518Z,865.47
2019-03-25T03:40:08.286Z,865.46
2019-03-25T03:41:08.234Z,865.49
2019-03-25T03:42:08.508Z,865.49
2019-03-25T03:43:08.452Z,865.48
2019-03-25T03:44:08.243Z,865.46
2019-03-25T03:45:08.198Z,865.43
2019-03-25T03:46:08.500Z,865.46
2019-03-25T03:47:08.175Z,865.46
2019-03-25T03:48:08.428Z,865.45
2019-03-25T03:49:08.187Z,865.43
2019-03-25T03:51:41.187Z,865.40
2019-03-25T03:52:40.223Z,865.39
2019-03-25T03:54:33.658Z,865.39
2019-03-25T03:55:33.793Z,865.39
2019-03-25T03:57:27.441Z,865.36
2019-03-25T03:58:27.210Z,865.35
2019-03-25T04:00:20.308Z,865.32
2019-03-25T04:01:20.337Z,865.31
2019-03-25T04:03:13.712Z,865.27
2019-03-25T04:04:13.674Z,865.27
2019-03-25T04:06:07.232Z,865.24
2019-03-25T04:07:07.240Z,865.27
2019-03-25T04:09:00.844Z,865.24
2019-03-25T04:10:00.559Z,865.21
2019-03-25T04:11:53.948Z,865.23
2019-03-25T04:12:53.712Z,865.15
2019-03-25T04:14:47.517Z,865.18
2019-03-25T04:15:48.462Z,865.13
2019-03-25T04:17:41.252Z,865.14
2019-03-25T04:18:40.396Z,865.12
2019-03-25T04:20:34.053Z,865.09
2019-03-25T04:21:33.935Z,865.10
2019-03-25T04:23:27.171Z,865.04
2019-03-25T04:24:27.502Z,865.03
2019-03-25T04:26:28.599Z,865.05
2019-03-25T04:27:20.627Z,865.08
2019-03-25T04:29:13.871Z,865.04
2019-03-25T04:30:13.968Z,865.04
2019-03-25T04:32:07.534Z,865.04
2019-03-25T04:33:07.272Z,865.04
2019-03-25T04:35:00.534Z,865.03
2019-03-25T04:36:00.840Z,865.01
2019-03-25T04:37:56.364Z,865.03
2019-03-25T04:38:53.989Z,865.01
2019-03-25T04:40:48.136Z,865.00
2019-03-25T04:41:47.090Z,864.96
2019-03-25T04:42:47.104Z,864.97
2019-03-25T04:43:47.315Z,864.96
2019-03-25T04:44:47.390Z,864.94
2019-03-25T04:45:48.059Z,864.94
2019-03-25T04:46:47.118Z,864.97
2019-03-25T04:47:49.891Z,864.94
2019-03-25T04:48:47.048Z,864.92
2019-03-25T04:49:47.221Z,864.92
2019-03-25T04:50:50.401Z,864.90
2019-03-25T04:51:47.245Z,864.92
2019-03-25T04:52:47.512Z,864.85
2019-03-25T04:53:47.569Z,864.86
2019-03-25T04:54:50.324Z,864.79
2019-03-25T04:55:47.163Z,864.79
2019-03-25T04:56:47.183Z,864.85
2019-03-25T04:57:46.915Z,864.79
2019-03-25T04:58:46.898Z,864.81
2019-03-25T04:59:47.155Z,864.85
2019-03-25T05:00:47.103Z,864.79
2019-03-25T05:01:46.925Z,864.80
2019-03-25T05:02:46.897Z,864.74
2019-03-25T05:03:46.895Z,864.71
2019-03-25T05:04:47.146Z,864.72
2019-03-25T05:05:46.874Z,864.71
2019-03-25T05:06:46.832Z,864.63
2019-03-25T05:07:46.847Z,864.69
2019-03-25T05:08:46.802Z,864.63
2019-03-25T05:09:46.805Z,864.66
2019-03-25T05:10:47.021Z,864.68
2019-03-25T05:11:46.849Z,864.65
2019-03-25T05:12:46.758Z,864.66
2019-03-25T05:13:47.448Z,864.64
2019-03-25T05:14:47.025Z,864.67
2019-03-25T05:15:46.971Z,864.59
2019-03-25T05:16:46.829Z,864.58
2019-03-25T05:17:47.411Z,864.60
2019-03-25T05:18:46.972Z,864.60
2019-03-25T05:19:46.913Z,864.58
2019-03-25T05:20:46.907Z,864.57
2019-03-25T05:21:46.923Z,864.59
2019-03-25T05:22:46.929Z,864.55
2019-03-25T05:23:46.726Z,864.55
2019-03-25T05:24:46.925Z,864.51
2019-03-25T05:25:57.942Z,864.52
2019-03-25T05:26:51.153Z,864.52
2019-03-25T05:27:46.918Z,864.53
2019-03-25T05:28:51.782Z,864.53
2019-03-25T05:29:46.616Z,864.44
2019-03-25T05:30:46.601Z,864.50
2019-03-25T05:31:46.654Z,864.52
2019-03-25T05:32:46.820Z,864.51
2019-03-25T05:33:55.012Z,864.53
2019-03-25T05:34:46.855Z,864.49
2019-03-25T05:35:46.917Z,864.47
2019-03-25T05:36:51.080Z,864.46
2019-03-25T05:37:46.556Z,864.43
2019-03-25T05:39:00.445Z,864.37
2019-03-25T05:39:47.485Z,864.37
2019-03-25T05:40:52.652Z,864.35
2019-03-25T05:42:14.270Z,864.33
2019-03-25T05:42:46.725Z,864.31
2019-03-25T05:43:50.426Z,864.33
2019-03-25T05:45:24.059Z,864.27
2019-03-25T05:46:17.353Z,864.30
2019-03-25T05:46:46.870Z,864.27
2019-03-25T05:47:46.714Z,864.26
2019-03-25T05:48:46.448Z,864.23
2019-03-25T05:49:46.663Z,864.20
2019-03-25T05:50:46.409Z,864.18
2019-03-25T05:51:46.665Z,864.17
2019-03-25T05:52:46.365Z,864.14
2019-03-25T05:53:46.361Z,864.13
2019-03-25T05:54:46.590Z,864.16
2019-03-25T05:55:46.351Z,864.09
2019-03-25T05:56:46.573Z,864.12
2019-03-25T05:57:46.568Z,864.09
2019-03-25T05:58:46.562Z,864.10
2019-03-25T05:59:46.314Z,864.07
2019-03-25T06:00:46.299Z,864.02
2019-03-25T06:01:46.539Z,864.05
2019-03-25T06:02:46.253Z,864.04
2019-03-25T06:03:46.479Z,864.00
2019-03-25T06:04:46.243Z,864.07
2019-03-25T06:05:47.448Z,864.05
2019-03-25T06:08:46.811Z,864.01
2019-03-25T06:09:46.487Z,863.99
2019-03-25T06:16:00.067Z,863.87
2019-03-25T06:16:58.173Z,863.90
2019-03-25T06:17:56.480Z,863.87
2019-03-25T06:18:56.730Z,863.84
2019-03-25T06:19:56.435Z,863.81
2019-03-25T06:20:56.444Z,863.79
2019-03-25T06:21:56.408Z,863.78
2019-03-25T06:26:30.209Z,863.65
2019-03-25T06:27:29.951Z,863.78
2019-03-25T06:29:23.470Z,863.78
2019-03-25T06:30:23.696Z,863.78
2019-03-25T06:33:48.745Z,863.76
2019-03-25T06:34:48.464Z,863.82
2019-03-25T06:36:41.736Z,863.82
2019-03-25T06:37:41.688Z,863.80
2019-03-25T06:41:07.359Z,863.80
2019-03-25T06:42:09.913Z,863.84
2019-03-25T06:44:00.656Z,863.79
2019-03-25T06:45:00.436Z,863.81
2019-03-25T06:46:54.166Z,863.79
2019-03-25T06:47:53.956Z,863.78
2019-03-25T06:48:54.226Z,863.78
2019-03-25T06:49:54.231Z,863.76
2019-03-25T06:50:55.406Z,863.74
2019-03-25T06:51:54.816Z,863.84
2019-03-25T06:52:56.736Z,863.82
2019-03-25T06:53:53.947Z,863.80
2019-03-25T06:54:53.664Z,863.79
2019-03-25T06:55:53.881Z,863.75
2019-03-25T06:56:53.880Z,863.75
2019-03-25T06:57:53.875Z,863.71
2019-03-25T06:58:53.609Z,863.74
2019-03-25T06:59:53.608Z,863.72
2019-03-25T07:00:53.679Z,863.71
2019-03-25T07:01:53.632Z,863.69
2019-03-25T07:02:53.695Z,863.66
2019-03-25T07:03:54.770Z,863.65
2019-03-25T07:04:53.830Z,863.62
2019-03-25T07:05:53.545Z,863.67
2019-03-25T07:06:53.859Z,863.68
2019-03-25T07:07:54.232Z,863.69
2019-03-25T07:08:53.516Z,863.70
2019-03-25T07:09:53.728Z,863.65
2019-03-25T07:10:53.541Z,863.65
2019-03-25T07:11:53.866Z,863.72
2019-03-25T07:12:53.519Z,863.69
2019-03-25T07:13:53.533Z,863.66
2019-03-25T07:14:53.457Z,863.63
2019-03-25T07:15:53.440Z,863.56
2019-03-25T07:16:53.457Z,863.62
2019-03-25T07:17:53.458Z,863.62
2019-03-25T07:18:53.414Z,863.60
2019-03-25T07:19:53.635Z,863.62
2019-03-25T07:20:53.435Z,863.60
2019-03-25T07:21:53.637Z,863.57
2019-03-25T07:22:53.371Z,863.57
2019-03-25T07:23:55.476Z,863.57
2019-03-25T07:24:53.617Z,863.60
2019-03-25T07:25:53.600Z,863.60
2019-03-25T07:26:55.544Z,863.63
2019-03-25T07:27:53.577Z,863.58
2019-03-25T07:28:53.710Z,863.62
2019-03-25T07:29:54.296Z,863.67
2019-03-25T07:30:53.566Z,863.63
2019-03-25T07:31:53.591Z,863.64
2019-03-25T07:32:53.296Z,863.65
2019-03-25T07:33:53.562Z,863.61
2019-03-25T07:34:53.598Z,863.63
2019-03-25T07:35:53.497Z,863.57
2019-03-25T07:36:53.490Z,863.61
2019-03-25T07:37:53.256Z,863.60
2019-03-25T07:38:53.694Z,863.61
2019-03-25T07:39:53.473Z,863.62
2019-03-25T07:40:53.477Z,863.57
2019-03-25T07:41:53.406Z,863.62
2019-03-25T07:42:53.177Z,863.67
2019-03-25T07:43:53.389Z,863.63
2019-03-25T07:44:53.163Z,863.61
2019-03-25T07:45:53.393Z,863.64
2019-03-25T07:46:53.385Z,863.69
2019-03-25T07:47:53.425Z,863.63
2019-03-25T07:48:53.181Z,863.67
2019-03-25T07:49:53.387Z,863.68
2019-03-25T07:50:53.129Z,863.64
2019-03-25T07:51:53.113Z,863.68
2019-03-25T07:52:53.114Z,863.64
2019-03-25T07:53:53.095Z,863.67
2019-03-25T07:54:53.055Z,863.57
2019-03-25T07:55:53.031Z,863.60
2019-03-25T07:56:53.062Z,863.55
2019-03-25T07:57:53.064Z,863.64
2019-03-25T07:58:53.074Z,863.57
2019-03-25T07:59:53.265Z,863.52
2019-03-25T08:00:53.019Z,863.60
2019-03-25T08:01:53.227Z,863.54
2019-03-25T08:02:53.233Z,863.57
2019-03-25T08:03:52.975Z,863.51
2019-03-25T08:04:52.956Z,863.56
2019-03-25T08:05:53.193Z,863.49
2019-03-25T08:06:52.971Z,863.56
2019-03-25T08:07:52.966Z,863.53
2019-03-25T08:09:03.414Z,863.52
2019-03-25T08:09:53.149Z,863.52
2019-03-25T08:10:52.938Z,863.48
2019-03-25T08:11:53.145Z,863.58
2019-03-25T08:12:53.198Z,863.52
2019-03-25T08:13:52.863Z,863.48
2019-03-25T08:14:53.130Z,863.51
2019-03-25T08:17:25.436Z,863.49
2019-03-25T08:18:24.943Z,863.48
2019-03-25T08:20:17.792Z,863.53
2019-03-25T08:21:18.055Z,863.50
2019-03-25T08:23:11.368Z,863.46
2019-03-25T08:24:11.312Z,863.42
2019-03-25T08:26:04.722Z,863.40
2019-03-25T08:27:04.902Z,863.39
2019-03-25T08:28:58.285Z,863.39
2019-03-25T08:29:57.791Z,863.39
2019-03-25T08:31:51.358Z,863.40
2019-03-25T08:32:51.087Z,863.41
2019-03-25T08:34:44.658Z,863.41
2019-03-25T08:35:44.689Z,863.41
2019-03-25T08:37:38.125Z,863.45
2019-03-25T08:38:38.016Z,863.43
2019-03-25T08:40:31.216Z,863.43
2019-03-25T08:41:31.359Z,863.43
2019-03-25T08:43:27.051Z,863.47
2019-03-25T08:44:24.690Z,863.44
2019-03-25T08:46:18.018Z,863.39
2019-03-25T08:47:17.996Z,863.38
2019-03-25T08:49:12.043Z,863.42
2019-03-25T08:50:10.651Z,863.45
2019-03-25T08:52:04.168Z,863.42
2019-03-25T08:53:03.961Z,863.47
2019-03-25T08:56:29.350Z,863.53
2019-03-25T08:57:29.335Z,863.49
2019-03-25T08:59:23.157Z,863.54
2019-03-25T09:00:22.745Z,863.55
2019-03-25T09:02:16.315Z,863.53
2019-03-25T09:03:16.044Z,863.54
2019-03-25T09:05:09.705Z,863.58
2019-03-25T09:06:09.463Z,863.55
2019-03-25T09:08:02.777Z,863.58
2019-03-25T09:09:02.805Z,863.59
2019-03-25T09:10:56.387Z,863.55
2019-03-25T09:11:56.150Z,863.55
2019-03-25T09:13:49.718Z,863.63
2019-03-25T09:14:49.711Z,863.60
2019-03-25T09:16:43.627Z,863.60
2019-03-25T09:17:42.821Z,863.71
2019-03-25T09:19:36.164Z,863.64
2019-03-25T09:20:36.151Z,863.64
2019-03-25T09:22:29.942Z,863.67
2019-03-25T09:23:29.450Z,863.66
2019-03-25T09:25:23.054Z,863.64
2019-03-25T09:26:23.063Z,863.65
2019-03-25T09:28:24.220Z,863.66
2019-03-25T09:29:16.402Z,863.71
2019-03-25T09:31:09.582Z,863.69
2019-03-25T09:32:09.474Z,863.66
2019-03-25T09:34:03.317Z,863.70
2019-03-25T09:35:02.804Z,863.72
2019-03-25T09:36:56.190Z,863.69
2019-03-25T09:37:56.205Z,863.71
2019-03-25T09:39:49.939Z,863.67
2019-03-25T09:40:49.468Z,863.72
2019-03-25T09:42:42.915Z,863.77
2019-03-25T09:45:38.219Z,863.72
2019-03-25T09:46:36.423Z,863.74
2019-03-25T09:48:30.509Z,863.74
2019-03-25T09:49:30.239Z,863.78
2019-03-25T09:51:24.154Z,863.76
2019-03-25T09:52:23.589Z,863.76
2019-03-25T09:53:23.576Z,863.77
2019-03-25T09:54:23.788Z,863.76
2019-03-25T09:55:23.544Z,863.73
2019-03-25T09:56:23.806Z,863.74
2019-03-25T09:57:23.533Z,863.79
2019-03-25T09:58:35.428Z,863.75
2019-03-25T09:59:23.549Z,863.78
2019-03-25T10:00:23.540Z,863.76
2019-03-25T10:01:23.720Z,863.77
2019-03-25T10:02:23.709Z,863.79
2019-03-25T10:03:23.474Z,863.83
2019-03-25T10:04:23.467Z,863.84
2019-03-25T10:05:23.553Z,863.82
2019-03-25T10:06:23.735Z,863.82
2019-03-25T10:07:23.695Z,863.86
2019-03-25T10:08:30.408Z,863.84
2019-03-25T10:10:55.910Z,863.83
2019-03-25T10:11:55.872Z,863.86
2019-03-25T10:13:48.674Z,863.82
2019-03-25T10:14:48.578Z,863.81
2019-03-25T10:16:41.476Z,863.82
2019-03-25T10:17:41.485Z,863.82
2019-03-25T10:19:34.839Z,863.85
2019-03-25T10:20:34.575Z,863.79
2019-03-25T10:22:28.426Z,863.79
2019-03-25T10:23:28.158Z,863.82
2019-03-25T10:25:21.622Z,863.85
2019-03-25T10:26:21.651Z,863.82
2019-03-25T10:28:15.189Z,863.84
2019-03-25T10:29:14.876Z,863.92
2019-03-25T10:30:14.983Z,863.89
2019-03-25T10:31:17.250Z,863.87
2019-03-25T10:32:14.687Z,863.88
2019-03-25T10:33:14.920Z,863.91
2019-03-25T10:34:14.966Z,863.88
2019-03-25T10:35:14.917Z,863.90
2019-03-25T10:36:14.925Z,863.90
2019-03-25T10:37:14.899Z,863.89
2019-03-25T10:38:19.584Z,863.93
2019-03-25T10:39:14.898Z,863.92
2019-03-25T10:40:14.843Z,863.93
2019-03-25T10:41:14.872Z,863.93
2019-03-25T10:42:14.864Z,863.94
2019-03-25T10:43:14.832Z,863.95
2019-03-25T10:44:14.866Z,863.98
2019-03-25T10:45:14.593Z,863.97
2019-03-25T10:46:14.590Z,863.95
2019-03-25T10:47:14.812Z,863.92
2019-03-25T10:48:14.537Z,863.92
2019-03-25T10:49:16.305Z,863.95
2019-03-25T10:50:14.550Z,863.95
2019-03-25T10:51:14.799Z,863.98
2019-03-25T10:52:14.527Z,863.98
2019-03-25T10:53:14.484Z,864.00
2019-03-25T10:54:14.573Z,864.01
2019-03-25T10:55:16.829Z,864.00
2019-03-25T10:56:14.731Z,864.04
2019-03-25T10:57:14.487Z,864.03
2019-03-25T10:58:14.433Z,864.02
2019-03-25T10:59:14.472Z,864.05
2019-03-25T11:00:14.448Z,864.05
2019-03-25T11:01:14.685Z,864.02
2019-03-25T11:02:14.701Z,864.04
2019-03-25T11:03:14.616Z,864.03
2019-03-25T11:04:14.602Z,864.04
2019-03-25T11:05:14.622Z,864.05
2019-03-25T11:06:14.619Z,864.07
2019-03-25T11:07:14.360Z,864.08
2019-03-25T11:08:14.609Z,864.06
2019-03-25T11:09:14.611Z,864.07
2019-03-25T11:10:14.569Z,864.03
2019-03-25T11:11:14.564Z,864.04
2019-03-25T11:12:14.576Z,864.04
2019-03-25T11:13:14.283Z,864.03
2019-03-25T11:14:14.548Z,864.05
2019-03-25T11:15:14.524Z,864.05
2019-03-25T11:16:14.269Z,864.02
2019-03-25T11:17:14.242Z,864.03
2019-03-25T11:18:14.495Z,864.02
2019-03-25T11:19:14.233Z,864.00
2019-03-25T11:20:14.470Z,864.01
2019-03-25T11:21:14.463Z,864.05
2019-03-25T11:22:14.489Z,864.04
2019-03-25T11:23:14.449Z,864.02
2019-03-25T11:24:15.166Z,864.02
2019-03-25T11:25:14.423Z,864.05
2019-03-25T11:26:14.416Z,864.05
2019-03-25T11:27:14.373Z,864.02
2019-03-25T11:28:14.431Z,864.06
2019-03-25T11:29:14.159Z,864.07
2019-03-25T11:30:14.115Z,864.06
2019-03-25T11:31:14.102Z,864.14
2019-03-25T11:32:14.094Z,864.08
2019-03-25T11:33:14.127Z,864.10
2019-03-25T11:34:14.108Z,864.10
2019-03-25T11:35:14.070Z,864.13
2019-03-25T11:36:14.349Z,864.12
2019-03-25T11:37:14.338Z,864.09
2019-03-25T11:38:14.345Z,864.12
2019-03-25T11:39:14.296Z,864.13
2019-03-25T11:40:14.048Z,864.14
2019-03-25T11:41:14.007Z,864.15
2019-03-25T11:42:14.259Z,864.13
2019-03-25T11:43:13.981Z,864.10
2019-03-25T11:44:13.973Z,864.14
2019-03-25T11:45:13.994Z,864.15
2019-03-25T11:46:13.971Z,864.12
2019-03-25T11:47:14.215Z,864.14
2019-03-25T11:48:14.166Z,864.19
2019-03-25T11:49:14.196Z,864.16
2019-03-25T11:50:13.929Z,864.19
2019-03-25T11:51:13.941Z,864.17
2019-03-25T11:52:14.153Z,864.20
2019-03-25T11:53:14.131Z,864.17
2019-03-25T11:54:13.870Z,864.19
2019-03-25T11:55:14.102Z,864.22
2019-03-25T11:56:13.860Z,864.21
2019-03-25T11:57:13.845Z,864.25
2019-03-25T11:58:14.061Z,864.27
2019-03-25T11:59:18.546Z,864.27
2019-03-25T12:00:14.045Z,864.25
2019-03-25T12:01:14.076Z,864.25
2019-03-25T12:02:17.677Z,864.25
2019-03-25T12:03:14.057Z,864.28
2019-03-25T12:04:14.002Z,864.28
2019-03-25T12:05:13.988Z,864.33
2019-03-25T12:06:13.757Z,864.30
2019-03-25T12:07:13.775Z,864.32
2019-03-25T12:08:13.758Z,864.27
2019-03-25T12:09:13.957Z,864.32
2019-03-25T12:10:13.975Z,864.34
2019-03-25T12:11:13.973Z,864.31
2019-03-25T12:12:13.971Z,864.32
2019-03-25T12:13:13.915Z,864.37
2019-03-25T12:14:13.979Z,864.40
2019-03-25T12:15:13.695Z,864.38
2019-03-25T12:16:13.875Z,864.41
2019-03-25T12:17:13.927Z,864.43
2019-03-25T12:18:13.910Z,864.42
2019-03-25T12:19:13.858Z,864.40
2019-03-25T12:20:13.878Z,864.42
2019-03-25T12:21:13.642Z,864.43
2019-03-25T12:22:13.609Z,864.45
2019-03-25T12:23:13.828Z,864.44
2019-03-25T12:24:13.959Z,864.43
2019-03-25T12:25:13.575Z,864.42
2019-03-25T12:26:13.593Z,864.43
2019-03-25T12:27:13.832Z,864.44
2019-03-25T12:28:13.761Z,864.41
2019-03-25T12:29:13.747Z,864.41
2019-03-25T12:30:13.542Z,864.43
2019-03-25T12:31:13.807Z,864.42
2019-03-25T12:32:15.625Z,864.42
2019-03-25T12:33:13.524Z,864.40
2019-03-25T12:34:13.521Z,864.44
2019-03-25T12:35:13.471Z,864.46
2019-03-25T12:36:13.714Z,864.48
2019-03-25T12:37:13.478Z,864.47
2019-03-25T12:38:13.695Z,864.44
2019-03-25T12:39:13.713Z,864.45
2019-03-25T12:40:13.650Z,864.44
2019-03-25T12:41:13.410Z,864.41
2019-03-25T12:42:13.692Z,864.36
2019-03-25T12:43:13.654Z,864.41
2019-03-25T12:44:13.628Z,864.40
2019-03-25T12:45:13.598Z,864.36
2019-03-25T12:46:13.384Z,864.37
2019-03-25T12:47:13.343Z,864.37
2019-03-25T12:48:13.630Z,864.38
2019-03-25T12:49:13.365Z,864.37
2019-03-25T12:50:13.357Z,864.35
2019-03-25T12:51:13.303Z,864.37
2019-03-25T12:52:13.580Z,864.35
2019-03-25T12:53:13.543Z,864.35
2019-03-25T12:54:13.558Z,864.35
2019-03-25T12:55:13.581Z,864.35
2019-03-25T12:56:13.253Z,864.32
2019-03-25T12:57:13.358Z,864.31
2019-03-25T12:58:13.468Z,864.30
2019-03-25T12:59:13.452Z,864.28
2019-03-25T13:00:13.472Z,864.29
2019-03-25T13:01:13.492Z,864.35
2019-03-25T13:02:13.461Z,864.33
2019-03-25T13:03:13.214Z,864.36
2019-03-25T13:04:13.440Z,864.37
2019-03-25T13:05:13.193Z,864.38
2019-03-25T13:06:13.204Z,864.40
2019-03-25T13:07:13.390Z,864.39
2019-03-25T13:08:13.390Z,864.39
2019-03-25T13:09:13.121Z,864.41
2019-03-25T13:10:13.153Z,864.37
2019-03-25T13:11:13.102Z,864.37
2019-03-25T13:12:13.363Z,864.37
2019-03-25T13:13:13.342Z,864.38
2019-03-25T13:14:13.303Z,864.34
2019-03-25T13:15:13.326Z,864.35
2019-03-25T13:16:13.098Z,864.37
2019-03-25T13:17:13.298Z,864.33
2019-03-25T13:18:13.291Z,864.35
2019-03-25T13:19:13.025Z,864.35
2019-03-25T13:20:13.062Z,864.39
2019-03-25T13:21:13.269Z,864.35
2019-03-25T13:22:13.008Z,864.33
2019-03-25T13:23:12.989Z,864.35
2019-03-25T13:24:13.021Z,864.37
2019-03-25T13:25:12.961Z,864.37
2019-03-25T13:26:13.249Z,864.41
2019-03-25T13:27:12.989Z,864.38
2019-03-25T13:28:12.960Z,864.38
2019-03-25T13:29:12.981Z,864.38
2019-03-25T13:30:13.140Z,864.38
2019-03-25T13:31:13.133Z,864.39
2019-03-25T13:32:13.146Z,864.38
2019-03-25T13:33:13.113Z,864.36
2019-03-25T13:34:12.870Z,864.35
2019-03-25T13:35:13.153Z,864.39
2019-03-25T13:36:12.847Z,864.37
2019-03-25T13:37:12.889Z,864.39
2019-03-25T13:38:13.120Z,864.39
2019-03-25T13:39:12.839Z,864.38
2019-03-25T13:40:12.850Z,864.44
2019-03-25T13:41:13.037Z,864.41
2019-03-25T13:42:12.833Z,864.44
2019-03-25T13:43:13.048Z,864.44
2019-03-25T13:44:12.814Z,864.44
2019-03-25T13:45:12.773Z,864.43
2019-03-25T13:46:13.007Z,864.42
2019-03-25T13:47:12.970Z,864.44
2019-03-25T13:48:12.989Z,864.40
2019-03-25T13:49:12.974Z,864.40
2019-03-25T13:50:13.018Z,864.42
2019-03-25T13:51:12.706Z,864.41
2019-03-25T13:52:12.692Z,864.44
2019-03-25T13:53:12.933Z,864.45
2019-03-25T13:54:12.960Z,864.45
2019-03-25T13:55:13.283Z,864.48
2019-03-25T13:56:12.910Z,864.47
2019-03-25T13:57:12.943Z,864.50
2019-03-25T13:58:12.899Z,864.50
2019-03-25T13:59:12.614Z,864.49
2019-03-25T14:00:12.910Z,864.49
2019-03-25T14:01:12.650Z,864.47
2019-03-25T14:02:12.626Z,864.44
2019-03-25T14:03:12.576Z,864.46
2019-03-25T14:04:12.576Z,864.43
2019-03-25T14:05:12.841Z,864.43